Observations for NORWICH WEA CNTRE, United Kingdom (EGSH)

EGSH 190320Z AUTO 19009KT 9999 NCD 17/14 Q1011  
EGSH 190250Z AUTO 19010KT 9999 NCD 17/14 Q1011  
EGSH 190220Z AUTO 19010KT 9999 NCD 17/14 Q1011  
EGSH 190150Z AUTO 20011KT 9999 NCD 17/14 Q1011  
EGSH 190120Z AUTO 19010KT 9999 NCD 17/14 Q1011  
EGSH 190050Z AUTO 20009KT 9999 NCD 17/14 Q1011  
EGSH 190020Z AUTO 21010KT 9999 NCD 17/14 Q1011  
EGSH 182350Z AUTO 20010KT 9999 NCD 17/14 Q1011  
EGSH 182320Z AUTO 21010KT 9999 NCD 17/14 Q1011  
EGSH 182250Z AUTO 20011KT 9999 NCD 17/14 Q1011  
EGSH 182220Z AUTO 20011KT 170V240 9999 NCD 17/14 Q1011  
EGSH 182150Z AUTO 20010KT 9999 NCD 17/14 Q1011  
EGSH 182120Z AUTO 19012KT 160V230 9999 NCD 18/14 Q1011  
EGSH 182050Z 20011KT CAVOK 18/14 Q1011 NOSIG
EGSH 182020Z 20009KT CAVOK 18/14 Q1010 NOSIG
EGSH 181950Z 21011KT CAVOK 18/14 Q1010 NOSIG
EGSH 181920Z 21010KT CAVOK 19/14 Q1010 NOSIG
EGSH 181850Z 21010KT 9999 FEW046 20/14 Q1010 NOSIG  
EGSH 181820Z 22011KT 9999 FEW042 20/13 Q1010 NOSIG  
EGSH 181750Z 22010KT 9999 FEW045 21/13 Q1009 NOSIG  
EGSH 181720Z 23012KT 9999 FEW041 21/13 Q1009 NOSIG  
EGSH 181650Z 23016KT 9999 FEW041 21/13 Q1009 NOSIG  
EGSH 181620Z 23015KT 9999 SCT041 22/13 Q1009 NOSIG  
EGSH 181550Z 23017KT 9999 SCT041 22/13 Q1009 NOSIG  
EGSH 181520Z 24020KT 9999 SCT042 22/13 Q1008 NOSIG  
EGSH 181450Z 24021KT 9999 FEW038 22/12 Q1008 NOSIG  
EGSH 181420Z 24018KT 220V280 9999 FEW038 22/12 Q1008 NOSIG  
EGSH 181350Z 24019KT CAVOK 22/12 Q1007 NOSIG
EGSH 181320Z 23019G30KT CAVOK 22/12 Q1007 NOSIG 
EGSH 181250Z 23020KT 200V270 9999 FEW025 23/12 Q1006 NOSIG  
EGSH 181220Z 24021KT 190V270 9999 FEW025 23/14 Q1006 NOSIG  
EGSH 181150Z 23021G32KT 210V270 9999 SCT024 22/14 Q1006 NOSIG   
EGSH 181120Z 22020KT 190V270 9999 BKN025 21/15 Q1006 NOSIG  
EGSH 181050Z 22018G30KT 180V250 9999 BKN025 21/15 Q1005 NOSIG   
EGSH 181020Z 22022KT 9999 SCT026 22/15 Q1005 NOSIG  
EGSH 180950Z 22019KT 190V250 9999 SCT025 22/16 Q1005 NOSIG  
EGSH 180920Z 21017KT 190V260 9999 SCT025 21/15 Q1004 NOSIG  
EGSH 180850Z 21019KT 180V240 9999 SCT025 21/15 Q1004 NOSIG  
EGSH 180820Z 21018KT 170V240 9999 BKN026 20/15 Q1004 NOSIG  
EGSH 180750Z 21021KT 180V250 9999 FEW019 BKN024 20/15 Q1004 NOSIG   
EGSH 180720Z 19016KT 9999 SCT019 BKN025 19/16 Q1003 NOSIG   
EGSH 180650Z 19015KT 9999 BKN020 18/15 Q1004 NOSIG  
EGSH 180620Z 19013KT 9999 BKN021 18/15 Q1004
EGSH 180550Z 19011KT 160V220 9999 BKN021 17/14 Q1004
EGSH 180520Z 19010KT CAVOK 17/13 Q1004  
EGSH 180450Z 19009KT CAVOK 17/13 Q1004 REDZ 
EGSH 180420Z AUTO 21011KT 0800 DZ NCD 17/12 Q1004   
EGSH 180350Z AUTO 19007KT 150V220 1000 HZ NCD 17/12 Q1004   
EGSH 180320Z AUTO 18008KT 1800 HZ NCD 18/12 Q1005   
EGSH 180250Z AUTO 17007KT 1600 HZ NCD 18/12 Q1005 REDZ